sensor_id;sensor_type;location;lat;lon;timestamp;P1;durP1;ratioP1;P2;durP2;ratioP2
10667;SDS011;5382;42.136;24.796;2023-07-13T00:00:17;10.85;;;9.75;;
10667;SDS011;5382;42.136;24.796;2023-07-13T00:02:44;11.25;;;8.68;;
10667;SDS011;5382;42.136;24.796;2023-07-13T00:05:11;9.90;;;8.60;;
10667;SDS011;5382;42.136;24.796;2023-07-13T00:07:37;13.38;;;9.63;;
10667;SDS011;5382;42.136;24.796;2023-07-13T00:10:06;9.90;;;8.57;;
10667;SDS011;5382;42.136;24.796;2023-07-13T00:12:35;12.13;;;9.57;;
10667;SDS011;5382;42.136;24.796;2023-07-13T00:15:04;14.27;;;9.90;;
10667;SDS011;5382;42.136;24.796;2023-07-13T00:17:33;11.85;;;8.98;;
10667;SDS011;5382;42.136;24.796;2023-07-13T00:20:00;13.93;;;9.02;;
10667;SDS011;5382;42.136;24.796;2023-07-13T00:22:27;9.57;;;8.63;;
10667;SDS011;5382;42.136;24.796;2023-07-13T00:24:54;10.68;;;9.10;;
10667;SDS011;5382;42.136;24.796;2023-07-13T00:27:23;9.05;;;8.23;;
10667;SDS011;5382;42.136;24.796;2023-07-13T00:29:51;11.90;;;9.18;;
10667;SDS011;5382;42.136;24.796;2023-07-13T00:32:18;14.85;;;10.00;;
10667;SDS011;5382;42.136;24.796;2023-07-13T00:34:45;11.93;;;8.75;;
10667;SDS011;5382;42.136;24.796;2023-07-13T00:37:12;12.38;;;9.68;;
10667;SDS011;5382;42.136;24.796;2023-07-13T00:39:39;13.40;;;9.85;;
10667;SDS011;5382;42.136;24.796;2023-07-13T00:42:06;13.18;;;9.10;;
10667;SDS011;5382;42.136;24.796;2023-07-13T00:44:34;10.55;;;8.90;;
10667;SDS011;5382;42.136;24.796;2023-07-13T00:47:01;12.68;;;9.38;;
10667;SDS011;5382;42.136;24.796;2023-07-13T00:49:29;10.75;;;9.50;;
10667;SDS011;5382;42.136;24.796;2023-07-13T00:51:58;13.05;;;9.27;;
10667;SDS011;5382;42.136;24.796;2023-07-13T00:54:29;10.75;;;9.65;;
10667;SDS011;5382;42.136;24.796;2023-07-13T00:57:09;10.73;;;8.98;;
10667;SDS011;5382;42.136;24.796;2023-07-13T00:59:41;10.25;;;9.20;;
10667;SDS011;5382;42.136;24.796;2023-07-13T01:02:11;10.63;;;9.57;;
10667;SDS011;5382;42.136;24.796;2023-07-13T01:04:39;12.70;;;9.40;;
10667;SDS011;5382;42.136;24.796;2023-07-13T01:07:09;13.57;;;9.63;;
10667;SDS011;5382;42.136;24.796;2023-07-13T01:09:37;13.77;;;9.40;;
10667;SDS011;5382;42.136;24.796;2023-07-13T01:12:04;13.15;;;9.07;;
10667;SDS011;5382;42.136;24.796;2023-07-13T01:14:32;13.63;;;9.15;;
10667;SDS011;5382;42.136;24.796;2023-07-13T01:17:00;13.25;;;9.27;;
10667;SDS011;5382;42.136;24.796;2023-07-13T01:19:37;10.57;;;9.07;;
10667;SDS011;5382;42.136;24.796;2023-07-13T01:22:07;12.77;;;9.40;;
10667;SDS011;5382;42.136;24.796;2023-07-13T01:24:36;11.60;;;10.05;;
10667;SDS011;5382;42.136;24.796;2023-07-13T01:27:04;11.30;;;9.68;;
10667;SDS011;5382;42.136;24.796;2023-07-13T01:29:33;13.70;;;9.93;;
10667;SDS011;5382;42.136;24.796;2023-07-13T01:32:07;11.23;;;9.25;;
10667;SDS011;5382;42.136;24.796;2023-07-13T01:34:35;11.00;;;9.50;;
10667;SDS011;5382;42.136;24.796;2023-07-13T01:37:02;10.95;;;9.85;;
10667;SDS011;5382;42.136;24.796;2023-07-13T01:39:31;14.75;;;11.00;;
10667;SDS011;5382;42.136;24.796;2023-07-13T01:41:58;12.68;;;10.05;;
10667;SDS011;5382;42.136;24.796;2023-07-13T01:44:25;13.93;;;10.23;;
10667;SDS011;5382;42.136;24.796;2023-07-13T01:46:52;13.00;;;10.38;;
10667;SDS011;5382;42.136;24.796;2023-07-13T01:49:18;12.82;;;11.55;;
10667;SDS011;5382;42.136;24.796;2023-07-13T01:51:45;12.50;;;11.18;;
10667;SDS011;5382;42.136;24.796;2023-07-13T01:54:12;16.27;;;11.55;;
10667;SDS011;5382;42.136;24.796;2023-07-13T01:56:40;18.02;;;11.65;;
10667;SDS011;5382;42.136;24.796;2023-07-13T01:59:07;12.77;;;11.48;;
10667;SDS011;5382;42.136;24.796;2023-07-13T02:01:34;17.90;;;11.80;;
10667;SDS011;5382;42.136;24.796;2023-07-13T02:04:00;14.98;;;13.38;;
10667;SDS011;5382;42.136;24.796;2023-07-13T02:06:27;13.70;;;12.30;;
10667;SDS011;5382;42.136;24.796;2023-07-13T02:08:54;10.88;;;8.07;;
10667;SDS011;5382;42.136;24.796;2023-07-13T02:11:21;12.80;;;9.77;;
10667;SDS011;5382;42.136;24.796;2023-07-13T02:13:49;11.73;;;9.18;;
10667;SDS011;5382;42.136;24.796;2023-07-13T02:16:17;15.38;;;9.05;;
10667;SDS011;5382;42.136;24.796;2023-07-13T02:18:43;10.05;;;8.95;;
10667;SDS011;5382;42.136;24.796;2023-07-13T02:21:10;10.77;;;9.57;;
10667;SDS011;5382;42.136;24.796;2023-07-13T02:23:37;14.35;;;9.07;;
10667;SDS011;5382;42.136;24.796;2023-07-13T02:26:03;10.27;;;8.45;;
10667;SDS011;5382;42.136;24.796;2023-07-13T02:28:31;13.05;;;10.27;;
10667;SDS011;5382;42.136;24.796;2023-07-13T02:31:05;16.85;;;10.82;;
10667;SDS011;5382;42.136;24.796;2023-07-13T02:33:32;15.55;;;10.52;;
10667;SDS011;5382;42.136;24.796;2023-07-13T02:35:59;12.90;;;10.70;;
10667;SDS011;5382;42.136;24.796;2023-07-13T02:38:26;14.05;;;11.18;;
10667;SDS011;5382;42.136;24.796;2023-07-13T02:40:53;13.48;;;10.73;;
10667;SDS011;5382;42.136;24.796;2023-07-13T02:43:20;13.43;;;11.10;;
10667;SDS011;5382;42.136;24.796;2023-07-13T02:45:46;14.45;;;10.90;;
10667;SDS011;5382;42.136;24.796;2023-07-13T02:48:14;16.83;;;11.07;;
10667;SDS011;5382;42.136;24.796;2023-07-13T02:50:41;16.25;;;11.32;;
10667;SDS011;5382;42.136;24.796;2023-07-13T02:53:08;14.95;;;11.13;;
10667;SDS011;5382;42.136;24.796;2023-07-13T02:55:35;13.68;;;10.80;;
10667;SDS011;5382;42.136;24.796;2023-07-13T02:58:02;14.02;;;10.57;;
10667;SDS011;5382;42.136;24.796;2023-07-13T03:00:29;12.80;;;11.18;;
10667;SDS011;5382;42.136;24.796;2023-07-13T03:02:55;11.63;;;9.35;;
10667;SDS011;5382;42.136;24.796;2023-07-13T03:05:24;12.32;;;10.15;;
10667;SDS011;5382;42.136;24.796;2023-07-13T03:07:51;12.77;;;9.48;;
10667;SDS011;5382;42.136;24.796;2023-07-13T03:10:18;9.50;;;8.20;;
10667;SDS011;5382;42.136;24.796;2023-07-13T03:12:45;10.90;;;8.57;;
10667;SDS011;5382;42.136;24.796;2023-07-13T03:15:11;10.82;;;8.48;;
10667;SDS011;5382;42.136;24.796;2023-07-13T03:17:38;12.52;;;9.07;;
10667;SDS011;5382;42.136;24.796;2023-07-13T03:20:06;11.57;;;8.55;;
10667;SDS011;5382;42.136;24.796;2023-07-13T03:22:35;11.52;;;8.75;;
10667;SDS011;5382;42.136;24.796;2023-07-13T03:25:02;9.93;;;8.32;;
10667;SDS011;5382;42.136;24.796;2023-07-13T03:27:29;11.43;;;8.48;;
10667;SDS011;5382;42.136;24.796;2023-07-13T03:29:56;11.25;;;8.15;;
10667;SDS011;5382;42.136;24.796;2023-07-13T03:32:23;9.10;;;7.72;;
10667;SDS011;5382;42.136;24.796;2023-07-13T03:34:50;11.75;;;8.38;;
10667;SDS011;5382;42.136;24.796;2023-07-13T03:37:16;8.82;;;7.93;;
10667;SDS011;5382;42.136;24.796;2023-07-13T03:40:09;10.30;;;7.55;;
10667;SDS011;5382;42.136;24.796;2023-07-13T03:42:36;13.73;;;9.98;;
10667;SDS011;5382;42.136;24.796;2023-07-13T03:45:03;17.52;;;10.68;;
10667;SDS011;5382;42.136;24.796;2023-07-13T03:47:31;14.38;;;9.90;;
10667;SDS011;5382;42.136;24.796;2023-07-13T03:49:57;14.23;;;9.15;;
10667;SDS011;5382;42.136;24.796;2023-07-13T03:52:24;11.88;;;9.07;;
10667;SDS011;5382;42.136;24.796;2023-07-13T03:54:51;14.80;;;9.50;;
10667;SDS011;5382;42.136;24.796;2023-07-13T03:57:19;16.40;;;9.40;;
10667;SDS011;5382;42.136;24.796;2023-07-13T03:59:46;16.33;;;9.93;;
10667;SDS011;5382;42.136;24.796;2023-07-13T04:02:12;15.48;;;9.65;;
10667;SDS011;5382;42.136;24.796;2023-07-13T04:04:39;14.90;;;9.75;;
10667;SDS011;5382;42.136;24.796;2023-07-13T04:07:06;19.98;;;10.40;;
10667;SDS011;5382;42.136;24.796;2023-07-13T04:09:33;17.33;;;10.40;;
10667;SDS011;5382;42.136;24.796;2023-07-13T04:12:00;17.60;;;10.65;;
10667;SDS011;5382;42.136;24.796;2023-07-13T04:14:28;22.83;;;11.85;;
10667;SDS011;5382;42.136;24.796;2023-07-13T04:16:55;21.85;;;12.77;;
10667;SDS011;5382;42.136;24.796;2023-07-13T04:19:22;24.00;;;14.38;;
10667;SDS011;5382;42.136;24.796;2023-07-13T04:21:49;21.45;;;13.55;;
10667;SDS011;5382;42.136;24.796;2023-07-13T04:24:16;19.08;;;14.00;;
10667;SDS011;5382;42.136;24.796;2023-07-13T04:26:43;16.83;;;13.95;;
10667;SDS011;5382;42.136;24.796;2023-07-13T04:29:10;22.98;;;14.30;;
10667;SDS011;5382;42.136;24.796;2023-07-13T04:31:38;23.17;;;15.00;;
10667;SDS011;5382;42.136;24.796;2023-07-13T04:34:05;22.67;;;18.48;;
10667;SDS011;5382;42.136;24.796;2023-07-13T04:36:32;19.67;;;16.20;;
10667;SDS011;5382;42.136;24.796;2023-07-13T04:39:02;27.23;;;17.90;;
10667;SDS011;5382;42.136;24.796;2023-07-13T04:41:29;25.90;;;17.67;;
10667;SDS011;5382;42.136;24.796;2023-07-13T04:43:56;23.73;;;16.45;;
10667;SDS011;5382;42.136;24.796;2023-07-13T04:46:23;36.60;;;17.92;;
10667;SDS011;5382;42.136;24.796;2023-07-13T04:48:51;24.00;;;16.52;;
10667;SDS011;5382;42.136;24.796;2023-07-13T04:51:18;23.55;;;15.35;;
10667;SDS011;5382;42.136;24.796;2023-07-13T04:53:45;23.60;;;15.50;;
10667;SDS011;5382;42.136;24.796;2023-07-13T04:56:12;19.30;;;14.40;;
10667;SDS011;5382;42.136;24.796;2023-07-13T04:58:39;22.30;;;15.90;;
10667;SDS011;5382;42.136;24.796;2023-07-13T05:01:06;20.77;;;14.55;;
10667;SDS011;5382;42.136;24.796;2023-07-13T05:03:34;23.27;;;14.57;;
10667;SDS011;5382;42.136;24.796;2023-07-13T05:06:03;29.67;;;15.90;;
10667;SDS011;5382;42.136;24.796;2023-07-13T05:08:32;27.17;;;15.30;;
10667;SDS011;5382;42.136;24.796;2023-07-13T05:11:00;23.92;;;14.27;;
10667;SDS011;5382;42.136;24.796;2023-07-13T05:13:27;22.95;;;14.63;;
10667;SDS011;5382;42.136;24.796;2023-07-13T05:15:57;29.50;;;14.88;;
10667;SDS011;5382;42.136;24.796;2023-07-13T05:18:25;21.40;;;14.63;;
10667;SDS011;5382;42.136;24.796;2023-07-13T05:20:58;20.02;;;13.77;;
10667;SDS011;5382;42.136;24.796;2023-07-13T05:23:29;24.25;;;14.45;;
10667;SDS011;5382;42.136;24.796;2023-07-13T05:25:56;20.60;;;14.65;;
10667;SDS011;5382;42.136;24.796;2023-07-13T05:28:24;22.60;;;14.18;;
10667;SDS011;5382;42.136;24.796;2023-07-13T05:30:52;24.73;;;13.75;;
10667;SDS011;5382;42.136;24.796;2023-07-13T05:33:19;25.13;;;14.00;;
10667;SDS011;5382;42.136;24.796;2023-07-13T05:35:47;30.10;;;16.05;;
10667;SDS011;5382;42.136;24.796;2023-07-13T05:38:13;19.10;;;12.10;;
10667;SDS011;5382;42.136;24.796;2023-07-13T05:40:43;18.95;;;12.98;;
10667;SDS011;5382;42.136;24.796;2023-07-13T05:43:11;11.82;;;8.80;;
10667;SDS011;5382;42.136;24.796;2023-07-13T05:45:38;15.30;;;9.82;;
10667;SDS011;5382;42.136;24.796;2023-07-13T05:48:05;11.43;;;8.32;;
10667;SDS011;5382;42.136;24.796;2023-07-13T05:50:32;14.90;;;9.02;;
10667;SDS011;5382;42.136;24.796;2023-07-13T05:52:59;10.77;;;8.35;;
10667;SDS011;5382;42.136;24.796;2023-07-13T05:55:26;13.88;;;8.80;;
10667;SDS011;5382;42.136;24.796;2023-07-13T05:57:54;11.20;;;8.68;;
10667;SDS011;5382;42.136;24.796;2023-07-13T06:00:23;14.95;;;9.00;;
10667;SDS011;5382;42.136;24.796;2023-07-13T06:02:51;15.10;;;9.55;;
10667;SDS011;5382;42.136;24.796;2023-07-13T06:05:17;10.13;;;9.13;;
10667;SDS011;5382;42.136;24.796;2023-07-13T06:07:45;12.25;;;8.70;;
10667;SDS011;5382;42.136;24.796;2023-07-13T06:10:11;12.63;;;8.65;;
10667;SDS011;5382;42.136;24.796;2023-07-13T06:12:38;10.07;;;9.02;;
10667;SDS011;5382;42.136;24.796;2023-07-13T06:15:07;13.07;;;9.23;;
10667;SDS011;5382;42.136;24.796;2023-07-13T06:17:36;10.68;;;9.18;;
10667;SDS011;5382;42.136;24.796;2023-07-13T06:20:04;12.50;;;8.90;;
10667;SDS011;5382;42.136;24.796;2023-07-13T06:22:36;12.85;;;9.07;;
10667;SDS011;5382;42.136;24.796;2023-07-13T06:25:03;15.25;;;9.85;;
10667;SDS011;5382;42.136;24.796;2023-07-13T06:27:30;15.93;;;10.05;;
10667;SDS011;5382;42.136;24.796;2023-07-13T06:29:57;10.55;;;9.15;;
10667;SDS011;5382;42.136;24.796;2023-07-13T06:32:25;9.93;;;8.93;;
10667;SDS011;5382;42.136;24.796;2023-07-13T06:34:53;13.13;;;9.52;;
10667;SDS011;5382;42.136;24.796;2023-07-13T06:37:20;16.40;;;9.10;;
10667;SDS011;5382;42.136;24.796;2023-07-13T06:39:47;13.88;;;10.23;;
10667;SDS011;5382;42.136;24.796;2023-07-13T06:42:15;35.58;;;31.98;;
10667;SDS011;5382;42.136;24.796;2023-07-13T06:44:42;9.93;;;8.90;;
10667;SDS011;5382;42.136;24.796;2023-07-13T06:47:09;12.63;;;9.25;;
10667;SDS011;5382;42.136;24.796;2023-07-13T06:49:37;15.93;;;9.95;;
10667;SDS011;5382;42.136;24.796;2023-07-13T06:52:05;11.77;;;9.45;;
10667;SDS011;5382;42.136;24.796;2023-07-13T06:54:32;18.55;;;13.02;;
10667;SDS011;5382;42.136;24.796;2023-07-13T06:57:00;17.85;;;12.80;;
10667;SDS011;5382;42.136;24.796;2023-07-13T06:59:27;19.95;;;15.60;;
10667;SDS011;5382;42.136;24.796;2023-07-13T07:01:54;24.73;;;21.05;;
10667;SDS011;5382;42.136;24.796;2023-07-13T07:07:48;10.52;;;9.48;;
10667;SDS011;5382;42.136;24.796;2023-07-13T07:10:16;8.68;;;7.75;;
10667;SDS011;5382;42.136;24.796;2023-07-13T07:12:45;10.43;;;9.25;;
10667;SDS011;5382;42.136;24.796;2023-07-13T07:15:12;11.73;;;8.15;;
10667;SDS011;5382;42.136;24.796;2023-07-13T07:17:39;10.30;;;8.07;;
10667;SDS011;5382;42.136;24.796;2023-07-13T07:20:06;11.50;;;9.50;;
10667;SDS011;5382;42.136;24.796;2023-07-13T07:22:36;9.32;;;8.45;;
10667;SDS011;5382;42.136;24.796;2023-07-13T07:25:05;13.40;;;8.98;;
10667;SDS011;5382;42.136;24.796;2023-07-13T07:27:32;9.73;;;8.40;;
10667;SDS011;5382;42.136;24.796;2023-07-13T07:29:59;10.00;;;8.40;;
10667;SDS011;5382;42.136;24.796;2023-07-13T07:32:28;8.57;;;7.75;;
10667;SDS011;5382;42.136;24.796;2023-07-13T07:34:56;12.50;;;8.52;;
10667;SDS011;5382;42.136;24.796;2023-07-13T07:37:23;10.45;;;8.55;;
10667;SDS011;5382;42.136;24.796;2023-07-13T07:39:57;11.90;;;8.68;;
10667;SDS011;5382;42.136;24.796;2023-07-13T07:48:12;10.38;;;7.85;;
10667;SDS011;5382;42.136;24.796;2023-07-13T07:50:39;11.10;;;8.35;;
10667;SDS011;5382;42.136;24.796;2023-07-13T07:53:06;15.30;;;8.55;;
10667;SDS011;5382;42.136;24.796;2023-07-13T07:55:35;12.10;;;8.48;;
10667;SDS011;5382;42.136;24.796;2023-07-13T07:58:02;8.82;;;8.02;;
10667;SDS011;5382;42.136;24.796;2023-07-13T08:00:29;11.75;;;8.23;;
10667;SDS011;5382;42.136;24.796;2023-07-13T08:02:57;10.18;;;7.88;;
10667;SDS011;5382;42.136;24.796;2023-07-13T08:05:25;11.35;;;8.57;;
10667;SDS011;5382;42.136;24.796;2023-07-13T08:07:52;11.18;;;8.35;;
10667;SDS011;5382;42.136;24.796;2023-07-13T08:10:19;9.55;;;8.65;;
10667;SDS011;5382;42.136;24.796;2023-07-13T08:12:46;9.48;;;8.40;;
10667;SDS011;5382;42.136;24.796;2023-07-13T08:15:14;11.25;;;8.57;;
10667;SDS011;5382;42.136;24.796;2023-07-13T08:17:42;9.90;;;8.27;;
10667;SDS011;5382;42.136;24.796;2023-07-13T08:20:09;9.32;;;8.43;;
10667;SDS011;5382;42.136;24.796;2023-07-13T08:22:37;9.00;;;8.10;;
10667;SDS011;5382;42.136;24.796;2023-07-13T08:25:05;9.10;;;7.72;;
10667;SDS011;5382;42.136;24.796;2023-07-13T08:27:32;11.25;;;7.85;;
10667;SDS011;5382;42.136;24.796;2023-07-13T08:29:59;9.77;;;8.32;;
10667;SDS011;5382;42.136;24.796;2023-07-13T08:32:26;9.93;;;7.22;;
10667;SDS011;5382;42.136;24.796;2023-07-13T08:34:53;10.60;;;7.03;;
10667;SDS011;5382;42.136;24.796;2023-07-13T08:37:19;11.50;;;8.68;;
10667;SDS011;5382;42.136;24.796;2023-07-13T08:39:48;10.32;;;8.20;;
10667;SDS011;5382;42.136;24.796;2023-07-13T08:42:18;10.23;;;7.88;;
10667;SDS011;5382;42.136;24.796;2023-07-13T08:44:56;9.00;;;8.10;;
10667;SDS011;5382;42.136;24.796;2023-07-13T08:47:31;11.07;;;7.65;;
10667;SDS011;5382;42.136;24.796;2023-07-13T08:50:02;8.25;;;7.45;;
10667;SDS011;5382;42.136;24.796;2023-07-13T08:52:30;12.45;;;7.45;;
10667;SDS011;5382;42.136;24.796;2023-07-13T08:55:04;13.20;;;7.80;;
10667;SDS011;5382;42.136;24.796;2023-07-13T08:57:38;9.77;;;7.55;;
10667;SDS011;5382;42.136;24.796;2023-07-13T09:00:09;11.27;;;8.00;;
10667;SDS011;5382;42.136;24.796;2023-07-13T09:02:39;10.48;;;8.00;;
10667;SDS011;5382;42.136;24.796;2023-07-13T09:05:12;8.60;;;7.80;;
10667;SDS011;5382;42.136;24.796;2023-07-13T09:10:33;9.48;;;7.22;;
10667;SDS011;5382;42.136;24.796;2023-07-13T09:13:12;13.10;;;7.28;;
10667;SDS011;5382;42.136;24.796;2023-07-13T09:15:47;16.02;;;7.25;;
10667;SDS011;5382;42.136;24.796;2023-07-13T09:18:16;11.60;;;7.85;;
10667;SDS011;5382;42.136;24.796;2023-07-13T09:20:50;12.52;;;8.38;;
10667;SDS011;5382;42.136;24.796;2023-07-13T09:23:21;34.63;;;9.98;;
10667;SDS011;5382;42.136;24.796;2023-07-13T09:25:51;9.90;;;8.43;;
10667;SDS011;5382;42.136;24.796;2023-07-13T09:28:22;16.25;;;8.85;;
10667;SDS011;5382;42.136;24.796;2023-07-13T09:30:54;10.80;;;9.30;;
10667;SDS011;5382;42.136;24.796;2023-07-13T09:33:29;22.60;;;10.02;;
10667;SDS011;5382;42.136;24.796;2023-07-13T09:35:56;11.02;;;7.60;;
10667;SDS011;5382;42.136;24.796;2023-07-13T09:38:24;13.55;;;8.05;;
10667;SDS011;5382;42.136;24.796;2023-07-13T09:41:08;9.77;;;6.93;;
10667;SDS011;5382;42.136;24.796;2023-07-13T09:44:01;19.25;;;8.75;;
10667;SDS011;5382;42.136;24.796;2023-07-13T09:46:34;12.23;;;7.82;;
10667;SDS011;5382;42.136;24.796;2023-07-13T09:49:01;15.00;;;8.23;;
10667;SDS011;5382;42.136;24.796;2023-07-13T09:51:27;19.27;;;7.82;;
10667;SDS011;5382;42.136;24.796;2023-07-13T09:53:54;9.00;;;7.95;;
10667;SDS011;5382;42.136;24.796;2023-07-13T09:56:26;9.57;;;7.20;;
10667;SDS011;5382;42.136;24.796;2023-07-13T09:58:54;10.52;;;8.02;;
10667;SDS011;5382;42.136;24.796;2023-07-13T10:01:32;13.38;;;7.72;;
10667;SDS011;5382;42.136;24.796;2023-07-13T10:04:01;12.18;;;7.38;;
10667;SDS011;5382;42.136;24.796;2023-07-13T10:06:36;14.50;;;8.23;;
10667;SDS011;5382;42.136;24.796;2023-07-13T10:09:07;10.65;;;7.40;;
10667;SDS011;5382;42.136;24.796;2023-07-13T10:11:36;9.63;;;7.70;;
10667;SDS011;5382;42.136;24.796;2023-07-13T10:14:09;7.80;;;6.95;;
10667;SDS011;5382;42.136;24.796;2023-07-13T10:16:37;10.05;;;6.82;;
10667;SDS011;5382;42.136;24.796;2023-07-13T10:19:10;10.13;;;7.78;;
10667;SDS011;5382;42.136;24.796;2023-07-13T10:21:43;7.80;;;7.05;;
10667;SDS011;5382;42.136;24.796;2023-07-13T10:24:20;13.77;;;7.65;;
10667;SDS011;5382;42.136;24.796;2023-07-13T10:26:52;9.30;;;7.20;;
10667;SDS011;5382;42.136;24.796;2023-07-13T10:29:24;9.70;;;6.90;;
10667;SDS011;5382;42.136;24.796;2023-07-13T10:31:53;11.00;;;6.68;;
10667;SDS011;5382;42.136;24.796;2023-07-13T10:34:22;10.75;;;6.88;;
10667;SDS011;5382;42.136;24.796;2023-07-13T10:36:49;7.82;;;6.75;;
10667;SDS011;5382;42.136;24.796;2023-07-13T10:39:18;8.20;;;6.72;;
10667;SDS011;5382;42.136;24.796;2023-07-13T10:41:49;15.35;;;7.05;;
10667;SDS011;5382;42.136;24.796;2023-07-13T10:44:21;11.65;;;6.68;;
10667;SDS011;5382;42.136;24.796;2023-07-13T10:46:51;13.05;;;6.95;;
10667;SDS011;5382;42.136;24.796;2023-07-13T10:49:21;11.20;;;6.60;;
10667;SDS011;5382;42.136;24.796;2023-07-13T10:51:49;10.30;;;7.32;;
10667;SDS011;5382;42.136;24.796;2023-07-13T10:54:18;8.85;;;6.53;;
10667;SDS011;5382;42.136;24.796;2023-07-13T10:56:49;8.07;;;6.70;;
10667;SDS011;5382;42.136;24.796;2023-07-13T10:59:23;10.35;;;6.45;;
10667;SDS011;5382;42.136;24.796;2023-07-13T11:01:54;7.15;;;5.85;;
10667;SDS011;5382;42.136;24.796;2023-07-13T11:04:23;10.27;;;5.93;;
10667;SDS011;5382;42.136;24.796;2023-07-13T11:06:52;20.45;;;7.13;;
10667;SDS011;5382;42.136;24.796;2023-07-13T11:09:32;9.45;;;5.35;;
10667;SDS011;5382;42.136;24.796;2023-07-13T11:12:06;7.35;;;4.18;;
10667;SDS011;5382;42.136;24.796;2023-07-13T11:14:42;6.85;;;5.00;;
10667;SDS011;5382;42.136;24.796;2023-07-13T11:17:36;6.95;;;6.15;;
10667;SDS011;5382;42.136;24.796;2023-07-13T11:23:08;10.98;;;6.63;;
10667;SDS011;5382;42.136;24.796;2023-07-13T11:25:50;15.07;;;7.82;;
10667;SDS011;5382;42.136;24.796;2023-07-13T11:28:21;7.82;;;5.95;;
10667;SDS011;5382;42.136;24.796;2023-07-13T11:30:59;9.07;;;6.25;;
10667;SDS011;5382;42.136;24.796;2023-07-13T11:33:31;9.90;;;6.32;;
10667;SDS011;5382;42.136;24.796;2023-07-13T11:36:17;68.88;;;10.25;;
10667;SDS011;5382;42.136;24.796;2023-07-13T11:38:51;8.60;;;5.75;;
10667;SDS011;5382;42.136;24.796;2023-07-13T11:41:26;12.43;;;6.38;;
10667;SDS011;5382;42.136;24.796;2023-07-13T11:44:06;6.68;;;5.78;;
10667;SDS011;5382;42.136;24.796;2023-07-13T11:46:37;11.13;;;6.03;;
10667;SDS011;5382;42.136;24.796;2023-07-13T11:49:04;6.97;;;5.90;;
10667;SDS011;5382;42.136;24.796;2023-07-13T11:51:32;7.15;;;6.18;;
10667;SDS011;5382;42.136;24.796;2023-07-13T11:54:03;7.88;;;5.47;;
10667;SDS011;5382;42.136;24.796;2023-07-13T11:56:32;10.35;;;6.25;;
10667;SDS011;5382;42.136;24.796;2023-07-13T11:59:04;6.88;;;6.05;;
10667;SDS011;5382;42.136;24.796;2023-07-13T12:01:38;12.45;;;5.63;;
10667;SDS011;5382;42.136;24.796;2023-07-13T12:04:12;6.47;;;5.70;;
10667;SDS011;5382;42.136;24.796;2023-07-13T12:06:48;10.13;;;5.63;;
10667;SDS011;5382;42.136;24.796;2023-07-13T12:09:26;7.28;;;5.63;;
10667;SDS011;5382;42.136;24.796;2023-07-13T12:11:56;6.80;;;5.80;;
10667;SDS011;5382;42.136;24.796;2023-07-13T12:14:27;7.72;;;6.15;;
10667;SDS011;5382;42.136;24.796;2023-07-13T12:16:55;6.50;;;5.80;;
10667;SDS011;5382;42.136;24.796;2023-07-13T12:19:23;6.53;;;5.68;;
10667;SDS011;5382;42.136;24.796;2023-07-13T12:21:53;14.95;;;5.35;;
10667;SDS011;5382;42.136;24.796;2023-07-13T12:24:22;12.02;;;5.88;;
10667;SDS011;5382;42.136;24.796;2023-07-13T12:26:50;5.32;;;4.82;;
10667;SDS011;5382;42.136;24.796;2023-07-13T12:29:18;9.13;;;5.60;;
10667;SDS011;5382;42.136;24.796;2023-07-13T12:31:47;10.60;;;6.22;;
10667;SDS011;5382;42.136;24.796;2023-07-13T12:34:18;127.65;;;14.27;;
10667;SDS011;5382;42.136;24.796;2023-07-13T12:36:47;7.82;;;5.43;;
10667;SDS011;5382;42.136;24.796;2023-07-13T12:39:17;11.23;;;5.00;;
10667;SDS011;5382;42.136;24.796;2023-07-13T12:41:47;5.55;;;5.03;;
10667;SDS011;5382;42.136;24.796;2023-07-13T12:44:16;10.57;;;5.20;;
10667;SDS011;5382;42.136;24.796;2023-07-13T12:46:57;7.82;;;4.90;;
10667;SDS011;5382;42.136;24.796;2023-07-13T12:49:31;12.38;;;5.10;;
10667;SDS011;5382;42.136;24.796;2023-07-13T12:52:01;6.85;;;4.78;;
10667;SDS011;5382;42.136;24.796;2023-07-13T12:54:29;9.65;;;4.80;;
10667;SDS011;5382;42.136;24.796;2023-07-13T12:56:56;5.85;;;4.55;;
10667;SDS011;5382;42.136;24.796;2023-07-13T12:59:29;7.47;;;5.30;;
10667;SDS011;5382;42.136;24.796;2023-07-13T13:02:05;9.32;;;4.82;;
10667;SDS011;5382;42.136;24.796;2023-07-13T13:04:49;8.63;;;4.97;;
10667;SDS011;5382;42.136;24.796;2023-07-13T13:07:15;7.75;;;4.72;;
10667;SDS011;5382;42.136;24.796;2023-07-13T13:09:42;8.73;;;4.80;;
10667;SDS011;5382;42.136;24.796;2023-07-13T13:12:09;5.00;;;4.50;;
10667;SDS011;5382;42.136;24.796;2023-07-13T13:14:36;7.50;;;4.53;;
10667;SDS011;5382;42.136;24.796;2023-07-13T13:17:07;12.40;;;5.22;;
10667;SDS011;5382;42.136;24.796;2023-07-13T13:19:45;12.43;;;5.22;;
10667;SDS011;5382;42.136;24.796;2023-07-13T13:22:12;5.38;;;4.32;;
10667;SDS011;5382;42.136;24.796;2023-07-13T13:24:39;7.97;;;4.68;;
10667;SDS011;5382;42.136;24.796;2023-07-13T13:27:08;12.88;;;4.85;;
10667;SDS011;5382;42.136;24.796;2023-07-13T13:29:42;22.77;;;5.95;;
10667;SDS011;5382;42.136;24.796;2023-07-13T13:32:12;10.63;;;4.53;;
10667;SDS011;5382;42.136;24.796;2023-07-13T13:34:40;6.13;;;4.25;;
10667;SDS011;5382;42.136;24.796;2023-07-13T13:37:16;6.53;;;4.50;;
10667;SDS011;5382;42.136;24.796;2023-07-13T13:39:44;9.07;;;4.80;;
10667;SDS011;5382;42.136;24.796;2023-07-13T13:42:12;7.55;;;4.40;;
10667;SDS011;5382;42.136;24.796;2023-07-13T13:44:39;7.75;;;4.72;;
10667;SDS011;5382;42.136;24.796;2023-07-13T13:47:07;8.93;;;4.88;;
10667;SDS011;5382;42.136;24.796;2023-07-13T13:49:47;10.30;;;4.68;;
10667;SDS011;5382;42.136;24.796;2023-07-13T13:52:14;12.88;;;4.80;;
10667;SDS011;5382;42.136;24.796;2023-07-13T13:54:41;8.98;;;4.70;;
10667;SDS011;5382;42.136;24.796;2023-07-13T13:57:09;10.35;;;5.10;;
10667;SDS011;5382;42.136;24.796;2023-07-13T13:59:37;5.93;;;4.55;;
10667;SDS011;5382;42.136;24.796;2023-07-13T14:02:09;12.85;;;5.38;;
10667;SDS011;5382;42.136;24.796;2023-07-13T14:04:50;10.63;;;4.80;;
10667;SDS011;5382;42.136;24.796;2023-07-13T14:07:22;23.33;;;6.03;;
10667;SDS011;5382;42.136;24.796;2023-07-13T14:09:49;31.35;;;6.00;;
10667;SDS011;5382;42.136;24.796;2023-07-13T14:12:16;10.70;;;5.25;;
10667;SDS011;5382;42.136;24.796;2023-07-13T14:14:43;8.70;;;4.57;;
10667;SDS011;5382;42.136;24.796;2023-07-13T14:17:15;9.43;;;4.65;;
10667;SDS011;5382;42.136;24.796;2023-07-13T14:19:48;8.18;;;4.82;;
10667;SDS011;5382;42.136;24.796;2023-07-13T14:22:17;14.60;;;4.75;;
10667;SDS011;5382;42.136;24.796;2023-07-13T14:24:46;8.73;;;4.45;;
10667;SDS011;5382;42.136;24.796;2023-07-13T14:27:14;9.10;;;4.53;;
10667;SDS011;5382;42.136;24.796;2023-07-13T14:29:41;9.20;;;4.50;;
10667;SDS011;5382;42.136;24.796;2023-07-13T14:32:09;14.00;;;5.63;;
10667;SDS011;5382;42.136;24.796;2023-07-13T14:34:37;7.35;;;4.55;;
10667;SDS011;5382;42.136;24.796;2023-07-13T14:37:05;9.23;;;4.78;;
10667;SDS011;5382;42.136;24.796;2023-07-13T14:39:33;8.80;;;5.38;;
10667;SDS011;5382;42.136;24.796;2023-07-13T14:42:00;13.82;;;4.82;;
10667;SDS011;5382;42.136;24.796;2023-07-13T14:44:29;11.02;;;4.55;;
10667;SDS011;5382;42.136;24.796;2023-07-13T14:46:57;8.15;;;5.47;;
10667;SDS011;5382;42.136;24.796;2023-07-13T14:49:27;11.63;;;4.80;;
10667;SDS011;5382;42.136;24.796;2023-07-13T14:51:56;9.63;;;4.30;;
10667;SDS011;5382;42.136;24.796;2023-07-13T14:54:24;9.35;;;4.57;;
10667;SDS011;5382;42.136;24.796;2023-07-13T14:56:53;13.55;;;4.65;;
10667;SDS011;5382;42.136;24.796;2023-07-13T14:59:19;10.00;;;4.82;;
10667;SDS011;5382;42.136;24.796;2023-07-13T15:01:47;6.10;;;4.47;;